»·PEaware :: N3298S KRAL-KPSP

N3298S :: KRAL-KPSP

FLIGHT INFORMATION

Flight Status: Arrived
Operator: Privately registered:
United States
More flights under this callsign
Pilot: Todd P. (5750)
Aircraft: BEECH AIRCRAFT BONANZA
(BE36)
More flights by this aircraft type
Origin: KRAL Riverside Mun
United States
Destination: KPSP Palm Springs Intl
United States
More flights between these airports :: More routes between these airports
Route: PDZ V388 PSP TRM
File this flight plan on PilotEdge
Remarks: ODP 27 Procedure
Altitude:
(Current/Filed)
11,000ft
Speed:
(Current/Filed)
140kts
Departed: 22-Jul-15 04:29 PM
Arrived: 22-Jul-15 05:20 PM
Distance/Time
Traveled:
47nm/0:51
Distance/Time
To Go:
Arrived

Flight Plot

Page will automatically refresh every two minutes.


Map Options




Map Legend


Flown Route
Filed Route
Departure Airport
Arrival Airport
Navaid (VOR, NDB)
Fix

Horizontal Profiles

Position Reports

Time Latitude Longitude Heading Altitude Ground
Speed
22-Jul-15 16:17 33.951046 -117.446153 104 822ft 0kts
22-Jul-15 16:18 33.951046 -117.446153 104 822ft 0kts
22-Jul-15 16:19 33.951046 -117.446153 104 822ft 0kts
22-Jul-15 16:20 33.951046 -117.446153 104 822ft 0kts
22-Jul-15 16:21 33.951046 -117.446153 104 822ft 0kts
22-Jul-15 16:22 33.951046 -117.446153 104 822ft 0kts
22-Jul-15 16:23 33.950985 -117.445625 111 822ft 8kts
22-Jul-15 16:24 33.951100 -117.441191 107 822ft 21kts
22-Jul-15 16:25 33.950044 -117.434559 306 822ft 0kts
22-Jul-15 16:26 33.950044 -117.434559 306 822ft 0kts
22-Jul-15 16:27 33.950044 -117.434559 306 822ft 0kts
22-Jul-15 16:28 33.952419 -117.444087 283 873ft 86kts
22-Jul-15 16:29 33.955887 -117.471858 274 2027ft 88kts
22-Jul-15 16:30 33.940757 -117.495045 233 3179ft 87kts
22-Jul-15 16:31 33.924918 -117.518341 229 4185ft 91kts
22-Jul-15 16:32 33.918904 -117.543218 316 5218ft 89kts
22-Jul-15 16:33 33.942918 -117.531675 44 6143ft 109kts
22-Jul-15 16:34 33.962857 -117.502632 74 6950ft 123kts
22-Jul-15 16:35 33.943230 -117.498787 231 7747ft 96kts
22-Jul-15 16:36 33.926899 -117.522907 245 8548ft 91kts
22-Jul-15 16:37 33.908434 -117.531668 133 8994ft 132kts
22-Jul-15 16:38 33.913284 -117.485486 73 9892ft 122kts
22-Jul-15 16:39 33.915867 -117.450873 85 10359ft 131kts
22-Jul-15 16:40 33.922342 -117.400923 76 10979ft 147kts
22-Jul-15 16:41 33.925660 -117.355412 84 10988ft 179kts
22-Jul-15 16:42 33.928428 -117.292645 85 10850ft 193kts
22-Jul-15 16:43 33.931054 -117.228832 85 10858ft 192kts
22-Jul-15 16:44 33.933632 -117.165430 86 10865ft 191kts
22-Jul-15 16:45 33.935908 -117.102861 86 10871ft 190kts
22-Jul-15 16:46 33.938127 -117.039921 87 10871ft 189kts
22-Jul-15 16:47 33.939572 -116.978869 87 10872ft 189kts
22-Jul-15 16:48 33.941068 -116.916861 87 11103ft 179kts
22-Jul-15 16:49 33.942490 -116.857493 87 11111ft 187kts
22-Jul-15 16:50 33.943594 -116.794232 87 11072ft 191kts
22-Jul-15 16:51 33.946716 -116.730714 105 11037ft 194kts
22-Jul-15 16:52 33.930597 -116.668469 105 10995ft 196kts
22-Jul-15 16:53 33.913990 -116.605769 107 10972ft 196kts
22-Jul-15 16:54 33.895506 -116.544032 108 10973ft 196kts
22-Jul-15 16:55 33.882726 -116.480811 103 10973ft 195kts
22-Jul-15 16:56 33.862542 -116.421100 136 10975ft 196kts
22-Jul-15 16:57 33.822747 -116.376281 139 10970ft 196kts
22-Jul-15 16:58 33.781833 -116.330876 141 10322ft 217kts
22-Jul-15 16:59 33.736415 -116.280124 141 9078ft 218kts
22-Jul-15 17:00 33.695488 -116.235036 140 7643ft 188kts
22-Jul-15 17:01 33.658107 -116.193627 139 6238ft 181kts
22-Jul-15 17:02 33.623438 -116.152230 124 4829ft 176kts
22-Jul-15 17:03 33.598008 -116.104532 124 3935ft 151kts
22-Jul-15 17:04 33.591653 -116.063623 50 3936ft 132kts
22-Jul-15 17:05 33.618607 -116.072007 276 3944ft 121kts
22-Jul-15 17:06 33.623309 -116.113420 273 3941ft 128kts
22-Jul-15 17:07 33.627767 -116.156533 273 3940ft 131kts
22-Jul-15 17:08 33.646749 -116.194550 302 3885ft 139kts
22-Jul-15 17:09 33.669678 -116.233202 301 3720ft 142kts
22-Jul-15 17:10 33.692314 -116.271514 300 3575ft 139kts
22-Jul-15 17:11 33.714405 -116.308964 299 3392ft 134kts
22-Jul-15 17:12 33.735228 -116.344394 301 3275ft 125kts
22-Jul-15 17:13 33.754875 -116.377775 303 3101ft 118kts
22-Jul-15 17:14 33.768897 -116.405486 294 2700ft 87kts
22-Jul-15 17:15 33.782823 -116.433027 301 1856ft 93kts
22-Jul-15 17:16 33.796679 -116.455299 282 1872ft 99kts
22-Jul-15 17:17 33.804322 -116.484562 315 1085ft 95kts
22-Jul-15 17:18 33.823008 -116.501740 318 489ft 62kts
22-Jul-15 17:19 33.828093 -116.507167 191 480ft 8kts
22-Jul-15 17:20 33.826427 -116.506926 155 480ft 1kts

Navigation Log

Ident Type
Flight plan parsing failed, navigation log unavailable